Time;durP1;ratioP1;P1;durP2;ratioP2;P2;SDS_P1;SDS_P2;PMS_P1;PMS_P2;Temp;Humidity;BMP_temperature;BMP_pressure;BME280_temperature;BME280_humidity;BME280_pressure;Samples;Min_cycle;Max_cycle;Signal;HPM_P1;HPM_P2
2023/09/04 00:09:17;;;;;;;7.3;5;;;;;;;14.53;84.82;;;;;
2023/09/04 00:19:17;;;;;;;9.3;5.3;;;;;;;14.36;85.27;;;;;
2023/09/04 00:30:17;;;;;;;9.3;5.3;;;;;;;14.16;85.81;;;;;
2023/09/04 00:40:17;;;;;;;9.3;5.3;;;;;;;14.15;86.69;;;;;
2023/09/04 00:50:17;;;;;;;10.5;5.2;;;;;;;14.11;86.76;;;;;
2023/09/04 01:00:21;;;;;;;10.5;5.2;;;;;;;14.01;86.5;;;;;
2023/09/04 01:11:17;;;;;;;10.5;5.2;;;;;;;13.81;87.66;;;;;
2023/09/04 01:21:17;;;;;;;7.3;5.2;;;;;;;13.8;87.31;;;;;
2023/09/04 01:32:17;;;;;;;7.3;5.2;;;;;;;13.82;87.71;;;;;
2023/09/04 01:43:17;;;;;;;9.5;5.2;;;;;;;13.84;87.88;;;;;
2023/09/04 01:53:17;;;;;;;9.5;5.2;;;;;;;13.89;88.09;;;;;
2023/09/04 02:04:17;;;;;;;9.5;5.2;;;;;;;13.9;88.41;;;;;
2023/09/04 02:14:18;;;;;;;8.6;5.9;;;;;;;14.06;88.05;;;;;
2023/09/04 02:25:17;;;;;;;8.6;5.9;;;;;;;14.09;87.68;;;;;
2023/09/04 02:36:17;;;;;;;8.6;5.9;;;;;;;14;87.41;;;;;
2023/09/04 02:46:17;;;;;;;9.5;6.1;;;;;;;13.81;88.24;;;;;
2023/09/04 02:57:17;;;;;;;9.5;6.1;;;;;;;13.64;88.84;;;;;
2023/09/04 03:08:17;;;;;;;9.5;6.1;;;;;;;13.59;89.26;;;;;
2023/09/04 03:18:17;;;;;;;9.3;6.4;;;;;;;13.51;89.29;;;;;
2023/09/04 03:29:17;;;;;;;9.3;6.4;;;;;;;13.38;89.56;;;;;
2023/09/04 03:39:17;;;;;;;9.3;6.4;;;;;;;13.35;89.54;;;;;
2023/09/04 03:50:17;;;;;;;13.2;6.1;;;;;;;13.29;90.44;;;;;
2023/09/04 04:00:18;;;;;;;13.2;6.1;;;;;;;13.38;91.1;;;;;
2023/09/04 04:11:19;;;;;;;13.2;6.1;;;;;;;13.57;91.34;;;;;
2023/09/04 04:22:17;;;;;;;12.8;6.7;;;;;;;13.74;90.79;;;;;
2023/09/04 04:32:17;;;;;;;12.8;6.7;;;;;;;13.73;90.75;;;;;
2023/09/04 04:42:17;;;;;;;12.8;6.7;;;;;;;13.92;90.16;;;;;
2023/09/04 04:53:17;;;;;;;14;7.2;;;;;;;14.02;89.53;;;;;
2023/09/04 05:03:17;;;;;;;14;7.2;;;;;;;14.06;89.1;;;;;
2023/09/04 05:14:17;;;;;;;10.3;6;;;;;;;14.48;88.18;;;;;
2023/09/04 05:24:17;;;;;;;10.3;6;;;;;;;14.41;87.22;;;;;
2023/09/04 05:35:17;;;;;;;10.3;6;;;;;;;14.49;87.04;;;;;
2023/09/04 05:45:19;;;;;;;9.7;7.4;;;;;;;14.69;86.08;;;;;
2023/09/04 05:56:17;;;;;;;9.7;7.4;;;;;;;14.86;86.15;;;;;
2023/09/04 06:06:17;;;;;;;9.7;7.4;;;;;;;15.08;85.55;;;;;
2023/09/04 06:17:17;;;;;;;11.1;7.6;;;;;;;15.35;84.27;;;;;
2023/09/04 06:27:17;;;;;;;11.1;7.6;;;;;;;15.56;83.11;;;;;
2023/09/04 06:38:17;;;;;;;11.1;7.6;;;;;;;15.62;82.18;;;;;
2023/09/04 06:49:17;;;;;;;9.2;5.6;;;;;;;16.03;81.4;;;;;
2023/09/04 06:59:17;;;;;;;9.2;5.6;;;;;;;16.13;80.65;;;;;
2023/09/04 07:10:17;;;;;;;9.2;5.6;;;;;;;17.19;76.07;;;;;
2023/09/04 07:21:17;;;;;;;9;5.4;;;;;;;17.55;76.19;;;;;
2023/09/04 07:31:17;;;;;;;9;5.4;;;;;;;17.96;74.91;;;;;
2023/09/04 07:41:17;;;;;;;9;5.4;;;;;;;17.68;74.98;;;;;
2023/09/04 07:52:17;;;;;;;10.7;5.8;;;;;;;18.2;74.51;;;;;
2023/09/04 08:02:17;;;;;;;10.7;5.8;;;;;;;18.59;71.51;;;;;
2023/09/04 08:13:18;;;;;;;10.3;6.4;;;;;;;18.65;70.96;;;;;
2023/09/04 08:23:17;;;;;;;10.3;6.4;;;;;;;18.91;70.01;;;;;
2023/09/04 08:34:17;;;;;;;10.3;6.4;;;;;;;19.21;70;;;;;
2023/09/04 08:44:17;;;;;;;11.9;6.2;;;;;;;19.49;69;;;;;
2023/09/04 08:55:17;;;;;;;11.9;6.2;;;;;;;19.43;68.9;;;;;
2023/09/04 09:05:18;;;;;;;11.9;6.2;;;;;;;19.48;69.13;;;;;
2023/09/04 09:16:17;;;;;;;8.8;4.8;;;;;;;19.47;68.77;;;;;
2023/09/04 09:26:17;;;;;;;8.8;4.8;;;;;;;19.39;69.64;;;;;
2023/09/04 09:36:17;;;;;;;8.8;4.8;;;;;;;18.88;70.92;;;;;
2023/09/04 09:47:17;;;;;;;7.8;4.6;;;;;;;19.45;70.63;;;;;
2023/09/04 09:57:18;;;;;;;7.8;4.6;;;;;;;19.97;70.19;;;;;
2023/09/04 10:08:18;;;;;;;7.8;4.6;;;;;;;19.88;69.99;;;;;
2023/09/04 10:19:17;;;;;;;10.2;5.8;;;;;;;20.8;69.15;;;;;
2023/09/04 10:29:17;;;;;;;10.2;5.8;;;;;;;21.44;66.38;;;;;
2023/09/04 10:40:18;;;;;;;10.2;5.8;;;;;;;21.72;66.15;;;;;
2023/09/04 10:50:18;;;;;;;9.5;4.8;;;;;;;21.76;65.48;;;;;
2023/09/04 11:00:18;;;;;;;9.5;4.8;;;;;;;22.77;60.01;;;;;
2023/09/04 11:11:17;;;;;;;9.5;4.8;;;;;;;22.86;62.15;;;;;
2023/09/04 11:22:17;;;;;;;8;4.7;;;;;;;22.36;64.32;;;;;
2023/09/04 11:33:20;;;;;;;8;4.7;;;;;;;21.3;62.92;;;;;
2023/09/04 11:44:18;;;;;;;8.5;5.6;;;;;;;22.22;59.09;;;;;
2023/09/04 11:55:18;;;;;;;8.5;5.6;;;;;;;22.8;61.1;;;;;
2023/09/04 12:05:18;;;;;;;8.5;5.6;;;;;;;21.72;61.43;;;;;
2023/09/04 12:16:18;;;;;;;8.5;6.1;;;;;;;20.93;64.75;;;;;
2023/09/04 12:27:17;;;;;;;8.5;6.1;;;;;;;21.58;64.28;;;;;
2023/09/04 12:38:18;;;;;;;8.5;6.1;;;;;;;22.23;59.63;;;;;
2023/09/04 12:49:17;;;;;;;10.5;7;;;;;;;21.65;60.66;;;;;
2023/09/04 12:59:18;;;;;;;10.5;7;;;;;;;21.62;61.81;;;;;
2023/09/04 13:09:18;;;;;;;10.5;7;;;;;;;21.83;60.72;;;;;
2023/09/04 13:20:17;;;;;;;9.3;6.2;;;;;;;21.93;60.55;;;;;
2023/09/04 13:31:18;;;;;;;9.3;6.2;;;;;;;22.21;57.81;;;;;
2023/09/04 13:42:20;;;;;;;9.3;6.2;;;;;;;22.57;57.73;;;;;
2023/09/04 13:52:18;;;;;;;9.5;6.6;;;;;;;22.9;60.42;;;;;
2023/09/04 14:03:18;;;;;;;9.5;6.6;;;;;;;23.18;53.26;;;;;
2023/09/04 14:13:18;;;;;;;8.2;5.9;;;;;;;22.96;56.48;;;;;
2023/09/04 14:24:18;;;;;;;8.2;5.9;;;;;;;23.73;51.33;;;;;
2023/09/04 14:35:18;;;;;;;8.2;5.9;;;;;;;23.72;50.53;;;;;
2023/09/04 14:46:20;;;;;;;8.5;5.5;;;;;;;23.44;54.71;;;;;
2023/09/04 14:56:18;;;;;;;8.5;5.5;;;;;;;23.02;52.74;;;;;
2023/09/04 15:07:18;;;;;;;8.5;5.5;;;;;;;24;49.78;;;;;
2023/09/04 15:18:18;;;;;;;27.7;17.2;;;;;;;25.05;48.23;;;;;
2023/09/04 15:28:18;;;;;;;27.7;17.2;;;;;;;23.34;48.4;;;;;
2023/09/04 15:39:18;;;;;;;27.7;17.2;;;;;;;22.94;50.37;;;;;
2023/09/04 15:49:18;;;;;;;8.1;4.5;;;;;;;24.76;47.69;;;;;
2023/09/04 16:00:18;;;;;;;8.1;4.5;;;;;;;25.28;44.74;;;;;
2023/09/04 16:11:18;;;;;;;8.1;4.5;;;;;;;25;44.76;;;;;
2023/09/04 16:21:18;;;;;;;9.2;4.9;;;;;;;25.82;44.09;;;;;
2023/09/04 16:32:18;;;;;;;9.2;4.9;;;;;;;23.41;48.76;;;;;
2023/09/04 16:42:18;;;;;;;9.2;4.9;;;;;;;22.25;51.72;;;;;
2023/09/04 16:53:18;;;;;;;5.2;2.8;;;;;;;21.29;54.7;;;;;
2023/09/04 17:04:18;;;;;;;5.2;2.8;;;;;;;20.41;56.75;;;;;
2023/09/04 17:15:18;;;;;;;6;3.4;;;;;;;19.37;62.24;;;;;
2023/09/04 17:25:18;;;;;;;6;3.4;;;;;;;18.46;63.51;;;;;
2023/09/04 17:35:18;;;;;;;6;3.4;;;;;;;17.69;67.72;;;;;
2023/09/04 17:46:18;;;;;;;7.2;4.5;;;;;;;17.01;71.17;;;;;
2023/09/04 17:56:19;;;;;;;7.2;4.5;;;;;;;16.5;73.91;;;;;
2023/09/04 18:07:18;;;;;;;7.2;4.5;;;;;;;16.03;75.3;;;;;
2023/09/04 18:18:18;;;;;;;6.9;4.3;;;;;;;15.54;78.54;;;;;
2023/09/04 18:29:18;;;;;;;6.9;4.3;;;;;;;15.19;79.83;;;;;
2023/09/04 18:40:18;;;;;;;6.9;4.3;;;;;;;15;80.51;;;;;
2023/09/04 18:50:18;;;;;;;17.4;12.1;;;;;;;14.87;79.55;;;;;
2023/09/04 19:00:18;;;;;;;17.4;12.1;;;;;;;14.71;80.08;;;;;
2023/09/04 19:11:18;;;;;;;17.4;12.1;;;;;;;14.66;80;;;;;
2023/09/04 19:21:19;;;;;;;21.3;11.9;;;;;;;14.48;80.52;;;;;
2023/09/04 19:32:18;;;;;;;21.3;11.9;;;;;;;14.28;80.84;;;;;
2023/09/04 19:42:18;;;;;;;21.3;11.9;;;;;;;14.13;81.79;;;;;
2023/09/04 19:53:18;;;;;;;14.2;7.7;;;;;;;13.92;81.58;;;;;
2023/09/04 20:03:18;;;;;;;14.2;7.7;;;;;;;13.67;81.97;;;;;
2023/09/04 20:14:18;;;;;;;9.2;5.3;;;;;;;13.52;83.07;;;;;
2023/09/04 20:24:18;;;;;;;9.2;5.3;;;;;;;13.33;82.75;;;;;
2023/09/04 20:35:18;;;;;;;9.2;5.3;;;;;;;13.2;83.36;;;;;
2023/09/04 20:46:18;;;;;;;7.5;4;;;;;;;13.13;84.5;;;;;
2023/09/04 20:56:18;;;;;;;7.5;4;;;;;;;13.03;84.18;;;;;
2023/09/04 21:06:18;;;;;;;7.5;4;;;;;;;12.76;86;;;;;
2023/09/04 23:24:18;;;;;;;6.7;3.2;;;;;;;11.59;88.33;;;;;
2023/09/04 23:34:28;;;;;;;6.7;3.2;;;;;;;11.49;88.39;;;;;
2023/09/04 23:45:22;;;;;;;7.9;3.5;;;;;;;11.38;88.2;;;;;
2023/09/04 23:55:18;;;;;;;7.9;3.5;;;;;;;11.27;88.23;;;;;
